createdAt,value
2023-02-11T00:01:09.363Z,40.42
2023-02-11T00:03:37.077Z,40.38
2023-02-11T00:06:09.307Z,35.97
2023-02-11T00:08:36.884Z,39.22
2023-02-11T00:11:04.754Z,35.00
2023-02-11T00:13:31.579Z,47.42
2023-02-11T00:15:58.697Z,37.17
2023-02-11T00:18:25.462Z,41.17
2023-02-11T00:20:52.566Z,34.30
2023-02-11T00:23:19.684Z,39.30
2023-02-11T00:25:46.511Z,42.15
2023-02-11T00:28:13.750Z,35.90
2023-02-11T00:30:41.162Z,40.75
2023-02-11T00:33:11.959Z,42.28
2023-02-11T00:35:38.774Z,41.47
2023-02-11T00:38:05.618Z,45.35
2023-02-11T00:40:32.970Z,43.53
2023-02-11T00:42:59.841Z,38.60
2023-02-11T00:45:27.117Z,44.42
2023-02-11T00:47:53.833Z,47.88
2023-02-11T00:50:20.734Z,40.85
2023-02-11T00:52:48.005Z,42.05
2023-02-11T00:55:15.502Z,37.65
2023-02-11T00:57:42.869Z,42.35
2023-02-11T01:00:11.762Z,33.10
2023-02-11T01:02:38.888Z,40.83
2023-02-11T01:05:06.317Z,36.97
2023-02-11T01:07:33.521Z,46.30
2023-02-11T01:10:00.583Z,37.72
2023-02-11T01:12:27.799Z,44.83
2023-02-11T01:14:54.545Z,36.97
2023-02-11T01:17:21.283Z,51.55
2023-02-11T01:19:48.110Z,35.00
2023-02-11T01:22:15.299Z,38.25
2023-02-11T01:24:42.047Z,36.28
2023-02-11T01:27:09.282Z,42.17
2023-02-11T01:29:36.558Z,42.65
2023-02-11T01:32:03.352Z,42.70
2023-02-11T01:34:30.125Z,39.67
2023-02-11T01:36:58.985Z,40.42
2023-02-11T01:39:27.023Z,39.58
2023-02-11T01:41:54.183Z,43.58
2023-02-11T01:44:32.551Z,40.53
2023-02-11T01:46:59.944Z,40.58
2023-02-11T01:49:31.844Z,44.95
2023-02-11T01:52:25.631Z,44.65
2023-02-11T01:55:21.983Z,34.28
2023-02-11T01:57:53.976Z,36.88
2023-02-11T02:00:25.450Z,37.60
2023-02-11T02:03:00.647Z,43.63
2023-02-11T02:05:27.383Z,35.50
2023-02-11T02:08:19.366Z,32.70
2023-02-11T02:10:48.939Z,41.78
2023-02-11T02:13:16.453Z,45.28
2023-02-11T02:15:54.350Z,39.53
2023-02-11T02:18:48.963Z,34.65
2023-02-11T02:21:30.946Z,34.55
2023-02-11T02:24:22.373Z,34.60
2023-02-11T02:27:24.313Z,43.38
2023-02-11T02:29:59.322Z,31.70
2023-02-11T02:32:33.702Z,41.70
2023-02-11T02:35:19.092Z,33.58
2023-02-11T02:37:56.392Z,35.78
2023-02-11T02:40:33.648Z,35.15
2023-02-11T02:43:02.248Z,38.67
2023-02-11T02:45:29.634Z,27.55
2023-02-11T02:47:56.542Z,32.13
2023-02-11T02:50:30.734Z,30.83
2023-02-11T02:53:00.483Z,33.05
2023-02-11T02:56:03.018Z,35.63
2023-02-11T02:58:48.106Z,36.20
2023-02-11T03:01:23.445Z,38.45
2023-02-11T03:04:08.739Z,37.15
2023-02-11T03:06:47.696Z,43.03
2023-02-11T03:09:34.517Z,36.42
2023-02-11T03:12:03.730Z,32.63
2023-02-11T03:14:32.246Z,34.17
2023-02-11T03:17:03.780Z,41.60
2023-02-11T03:19:51.645Z,36.13
2023-02-11T03:22:24.765Z,36.67
2023-02-11T03:24:51.848Z,35.42
2023-02-11T03:27:25.896Z,36.38
2023-02-11T03:30:05.704Z,33.65
2023-02-11T03:32:38.469Z,34.10
2023-02-11T03:35:21.599Z,34.28
2023-02-11T03:37:56.013Z,38.97
2023-02-11T03:40:27.761Z,30.67
2023-02-11T03:43:17.602Z,34.67
2023-02-11T03:45:46.554Z,33.50
2023-02-11T03:48:18.630Z,30.90
2023-02-11T03:50:47.474Z,38.28
2023-02-11T03:53:16.410Z,32.20
2023-02-11T03:55:43.894Z,34.05
2023-02-11T03:58:11.243Z,32.30
2023-02-11T04:00:41.360Z,33.55
2023-02-11T04:03:10.239Z,34.35
2023-02-11T04:05:37.328Z,32.28
2023-02-11T04:08:04.867Z,31.98
2023-02-11T04:10:32.170Z,30.50
2023-02-11T04:12:58.987Z,35.05
2023-02-11T04:15:26.275Z,30.73
2023-02-11T04:17:53.200Z,29.70
2023-02-11T04:20:20.052Z,29.65
2023-02-11T04:22:47.234Z,33.15
2023-02-11T04:25:14.348Z,36.30
2023-02-11T04:27:41.626Z,35.40
2023-02-11T04:30:09.279Z,30.65
2023-02-11T04:32:36.740Z,36.55
2023-02-11T04:35:04.126Z,32.05
2023-02-11T04:37:33.793Z,30.38
2023-02-11T04:40:00.536Z,25.98
2023-02-11T04:42:29.159Z,34.70
2023-02-11T04:44:55.938Z,35.78
2023-02-11T04:47:23.182Z,28.23
2023-02-11T04:49:49.939Z,29.38
2023-02-11T04:52:16.786Z,31.77
2023-02-11T04:54:43.609Z,32.10
2023-02-11T04:57:10.752Z,30.88
2023-02-11T04:59:38.032Z,30.20
2023-02-11T05:02:04.824Z,28.52
2023-02-11T05:04:32.210Z,36.50
2023-02-11T05:06:58.949Z,35.55
2023-02-11T05:09:25.765Z,28.45
2023-02-11T05:11:54.133Z,33.50
2023-02-11T05:14:21.285Z,27.85
2023-02-11T05:16:48.153Z,30.40
2023-02-11T05:19:14.943Z,34.25
2023-02-11T05:21:50.426Z,29.13
2023-02-11T05:24:24.012Z,30.42
2023-02-11T05:26:50.750Z,31.02
2023-02-11T05:29:17.506Z,28.15
2023-02-11T05:31:44.663Z,27.67
2023-02-11T05:34:11.428Z,30.88
2023-02-11T05:36:38.186Z,32.40
2023-02-11T05:39:04.962Z,30.85
2023-02-11T05:41:31.705Z,38.10
2023-02-11T05:43:58.914Z,32.50
2023-02-11T05:46:25.737Z,34.03
2023-02-11T05:48:52.875Z,27.55
2023-02-11T05:51:19.639Z,31.80
2023-02-11T05:53:46.384Z,31.95
2023-02-11T05:56:14.971Z,31.00
2023-02-11T05:58:42.266Z,36.70
2023-02-11T06:01:09.023Z,25.98
2023-02-11T06:03:36.346Z,35.45
2023-02-11T06:06:03.212Z,33.83
2023-02-11T06:08:30.394Z,29.90
2023-02-11T06:10:57.599Z,34.03
2023-02-11T06:13:24.327Z,31.85
2023-02-11T06:16:01.878Z,31.83
2023-02-11T06:18:29.589Z,36.00
2023-02-11T06:20:56.985Z,30.63
2023-02-11T06:23:24.265Z,29.00
2023-02-11T06:25:52.638Z,33.70
2023-02-11T06:28:19.976Z,34.47
2023-02-11T06:30:47.174Z,33.33
2023-02-11T06:33:14.380Z,41.30
2023-02-11T06:35:41.173Z,30.27
2023-02-11T06:38:08.482Z,29.00
2023-02-11T06:40:35.257Z,30.90
2023-02-11T06:43:02.594Z,31.33
2023-02-11T06:45:29.390Z,33.13
2023-02-11T06:47:56.603Z,30.80
2023-02-11T06:50:23.842Z,37.60
2023-02-11T06:52:50.954Z,28.13
2023-02-11T06:55:17.719Z,36.33
2023-02-11T06:57:44.503Z,35.75
2023-02-11T07:00:12.045Z,34.17
2023-02-11T07:02:39.205Z,33.15
2023-02-11T07:05:07.961Z,30.65
2023-02-11T07:07:35.462Z,29.00
2023-02-11T07:10:04.110Z,32.00
2023-02-11T07:12:32.193Z,29.00
2023-02-11T07:14:59.336Z,28.75
2023-02-11T07:17:26.065Z,31.67
2023-02-11T07:19:52.810Z,26.10
2023-02-11T07:22:19.590Z,31.35
2023-02-11T07:24:46.839Z,36.03
2023-02-11T07:27:13.588Z,29.88
2023-02-11T07:29:42.175Z,28.65
2023-02-11T07:32:09.376Z,28.50
2023-02-11T07:34:38.908Z,35.58
2023-02-11T07:37:06.383Z,27.80
2023-02-11T07:39:33.698Z,25.02
2023-02-11T07:42:00.437Z,29.42
2023-02-11T07:44:27.630Z,31.35
2023-02-11T07:46:54.867Z,37.35
2023-02-11T07:49:21.818Z,22.95
2023-02-11T07:51:49.249Z,24.63
2023-02-11T07:54:16.121Z,24.25
2023-02-11T07:56:45.351Z,28.38
2023-02-11T07:59:12.738Z,26.33
2023-02-11T08:01:40.429Z,25.25
2023-02-11T08:04:07.652Z,21.75
2023-02-11T08:06:35.413Z,25.33
2023-02-11T08:09:07.578Z,25.17
2023-02-11T08:11:35.630Z,29.13
2023-02-11T08:14:04.224Z,35.55
2023-02-11T08:16:36.306Z,25.77
2023-02-11T08:19:06.984Z,22.35
2023-02-11T08:21:33.936Z,23.88
2023-02-11T08:24:03.482Z,24.00
2023-02-11T08:26:34.852Z,25.48
2023-02-11T08:29:06.729Z,27.52
2023-02-11T08:31:36.878Z,27.48
2023-02-11T08:34:03.845Z,31.25
2023-02-11T08:36:36.572Z,37.80
2023-02-11T08:39:18.666Z,25.58
2023-02-11T08:41:49.156Z,26.50
2023-02-11T08:44:17.396Z,21.90
2023-02-11T08:46:44.216Z,29.08
2023-02-11T08:49:11.581Z,32.20
2023-02-11T08:51:38.319Z,26.60
2023-02-11T08:54:09.462Z,25.52
2023-02-11T08:56:37.987Z,23.42
2023-02-11T08:59:07.265Z,26.50
2023-02-11T09:01:35.170Z,29.15
2023-02-11T09:04:03.704Z,29.88
2023-02-11T09:06:30.597Z,25.20
2023-02-11T09:08:58.668Z,24.33
2023-02-11T09:11:30.464Z,26.48
2023-02-11T09:13:58.404Z,23.25
2023-02-11T09:16:33.370Z,22.95
2023-02-11T09:19:02.171Z,31.48
2023-02-11T09:21:30.971Z,20.67
2023-02-11T09:23:59.508Z,22.95
2023-02-11T09:26:32.501Z,26.88
2023-02-11T09:29:00.088Z,23.73
2023-02-11T09:31:29.346Z,21.10
2023-02-11T09:34:05.320Z,24.27
2023-02-11T09:36:35.439Z,30.83
2023-02-11T09:39:03.497Z,26.15
2023-02-11T09:42:06.690Z,22.98
2023-02-11T09:44:37.654Z,31.25
2023-02-11T09:47:29.506Z,19.23
2023-02-11T09:50:21.847Z,21.30
2023-02-11T09:53:03.423Z,22.65
2023-02-11T09:55:36.729Z,24.70
2023-02-11T09:58:21.272Z,18.08
2023-02-11T10:01:07.440Z,22.65
2023-02-11T10:04:11.551Z,22.15
2023-02-11T10:06:43.024Z,23.98
2023-02-11T10:09:16.179Z,19.98
2023-02-11T10:12:04.594Z,19.90
2023-02-11T10:15:08.850Z,19.92
2023-02-11T10:18:10.700Z,15.07
2023-02-11T10:21:08.077Z,18.40
2023-02-11T10:23:40.033Z,17.00
2023-02-11T10:26:14.559Z,20.48
2023-02-11T10:28:44.958Z,17.30
2023-02-11T10:31:18.577Z,18.52
2023-02-11T10:33:57.606Z,22.45
2023-02-11T10:36:28.323Z,19.95
2023-02-11T10:38:59.238Z,21.15
2023-02-11T10:41:37.087Z,21.60
2023-02-11T10:44:07.013Z,21.15
2023-02-11T10:46:38.981Z,18.98
2023-02-11T10:49:06.069Z,21.70
2023-02-11T10:51:34.720Z,21.33
2023-02-11T10:54:04.911Z,24.90
2023-02-11T10:56:35.941Z,21.15
2023-02-11T10:59:16.080Z,24.90
2023-02-11T11:01:51.800Z,18.13
2023-02-11T11:04:31.082Z,23.02
2023-02-11T11:07:20.385Z,19.23
2023-02-11T11:10:08.765Z,17.15
2023-02-11T11:12:42.020Z,24.48
2023-02-11T11:15:16.497Z,22.27
2023-02-11T11:17:43.758Z,27.52
2023-02-11T11:20:34.001Z,24.05
2023-02-11T11:23:22.757Z,25.67
2023-02-11T11:26:04.921Z,23.60
2023-02-11T11:28:42.024Z,22.38
2023-02-11T11:31:19.362Z,27.60
2023-02-11T11:33:47.803Z,24.35
2023-02-11T11:36:21.141Z,21.90
2023-02-11T11:38:59.095Z,21.05
2023-02-11T11:41:28.711Z,22.25
2023-02-11T11:43:57.285Z,24.95
2023-02-11T11:46:28.778Z,21.48
2023-02-11T11:49:01.908Z,20.58
2023-02-11T11:51:29.351Z,22.00
2023-02-11T11:54:12.251Z,23.60
2023-02-11T11:57:10.858Z,22.88
2023-02-11T11:59:38.285Z,25.23
2023-02-11T12:02:30.201Z,27.15
2023-02-11T12:05:22.367Z,24.80
2023-02-11T12:08:11.657Z,27.27
2023-02-11T12:10:50.762Z,26.70
2023-02-11T12:13:47.835Z,23.60
2023-02-11T12:16:33.426Z,22.50
2023-02-11T12:19:15.113Z,24.23
2023-02-11T12:21:54.108Z,23.23
2023-02-11T12:24:31.447Z,20.73
2023-02-11T12:27:03.992Z,28.38
2023-02-11T12:29:50.708Z,21.98
2023-02-11T12:32:25.516Z,22.08
2023-02-11T12:35:31.151Z,26.13
2023-02-11T12:38:15.931Z,20.75
2023-02-11T12:40:53.299Z,23.52
2023-02-11T12:43:22.913Z,28.10
2023-02-11T12:46:09.604Z,25.92
2023-02-11T12:48:58.190Z,24.35
2023-02-11T12:51:52.410Z,23.92
2023-02-11T12:54:29.887Z,19.35
2023-02-11T12:57:23.668Z,23.40
2023-02-11T13:00:02.683Z,20.50
2023-02-11T13:03:02.602Z,25.83
2023-02-11T13:05:47.510Z,21.77
2023-02-11T13:08:20.227Z,23.45
2023-02-11T13:10:52.294Z,22.92
2023-02-11T13:13:35.692Z,20.80
2023-02-11T13:16:14.449Z,21.70
2023-02-11T13:18:57.669Z,27.00
2023-02-11T13:21:57.560Z,20.48
2023-02-11T13:24:47.904Z,19.50
2023-02-11T13:27:26.629Z,21.90
2023-02-11T13:30:26.263Z,22.50
2023-02-11T13:32:55.756Z,32.08
2023-02-11T13:35:37.061Z,25.63
2023-02-11T13:38:17.109Z,26.08
2023-02-11T13:40:45.136Z,18.50
2023-02-11T13:43:23.631Z,29.15
2023-02-11T13:45:52.559Z,20.25
2023-02-11T13:48:32.137Z,19.45
2023-02-11T13:51:06.986Z,18.27
2023-02-11T13:53:55.246Z,22.73
2023-02-11T13:56:27.684Z,21.23
2023-02-11T13:58:55.200Z,24.00
2023-02-11T14:01:39.773Z,24.25
2023-02-11T14:04:42.505Z,20.60
2023-02-11T14:07:50.627Z,25.17
2023-02-11T14:10:38.976Z,20.15
2023-02-11T14:13:18.321Z,27.00
2023-02-11T14:15:46.526Z,21.55
2023-02-11T14:18:45.545Z,19.58
2023-02-11T14:21:19.093Z,21.30
2023-02-11T14:23:47.072Z,22.65
2023-02-11T14:26:27.558Z,20.67
2023-02-11T14:28:58.119Z,21.52
2023-02-11T14:31:30.543Z,20.20
2023-02-11T14:34:03.073Z,21.00
2023-02-11T14:36:50.421Z,20.50
2023-02-11T14:39:45.357Z,29.27
2023-02-11T14:42:22.804Z,22.55
2023-02-11T14:44:51.869Z,21.75
2023-02-11T14:47:28.240Z,24.90
2023-02-11T14:49:55.376Z,26.77
2023-02-11T14:52:31.973Z,20.95
2023-02-11T14:55:29.277Z,24.27
2023-02-11T14:58:19.348Z,28.90
2023-02-11T15:00:58.899Z,26.60
2023-02-11T15:03:38.040Z,24.90
2023-02-11T15:06:17.310Z,25.20
2023-02-11T15:08:50.843Z,23.67
2023-02-11T15:11:21.691Z,28.80
2023-02-11T15:13:51.114Z,25.02
2023-02-11T15:16:25.057Z,26.75
2023-02-11T15:18:58.262Z,25.25
2023-02-11T15:21:29.792Z,28.35
2023-02-11T15:24:23.788Z,26.67
2023-02-11T15:27:00.070Z,24.42
2023-02-11T15:29:35.080Z,24.00
2023-02-11T15:32:12.989Z,31.67
2023-02-11T15:34:40.683Z,29.08
2023-02-11T15:37:08.037Z,25.08
2023-02-11T15:39:40.452Z,26.13
2023-02-11T15:42:38.081Z,36.75
2023-02-11T15:45:14.417Z,32.72
2023-02-11T15:47:55.341Z,33.00
2023-02-11T15:50:28.869Z,31.42
2023-02-11T15:52:58.919Z,31.38
2023-02-11T15:55:27.755Z,35.25
2023-02-11T15:57:57.806Z,30.77
2023-02-11T16:00:38.867Z,27.00
2023-02-11T16:03:06.134Z,35.08
2023-02-11T16:05:36.458Z,33.28
2023-02-11T16:08:24.772Z,35.03
2023-02-11T16:11:08.866Z,35.00
2023-02-11T16:13:47.264Z,29.65
2023-02-11T16:16:33.068Z,27.90
2023-02-11T16:19:05.121Z,31.98
2023-02-11T16:21:39.600Z,31.13
2023-02-11T16:24:08.123Z,28.45
2023-02-11T16:26:39.939Z,25.55
2023-02-11T16:29:17.666Z,28.30
2023-02-11T16:31:47.377Z,32.95
2023-02-11T16:34:19.444Z,28.17
2023-02-11T16:36:47.345Z,28.60
2023-02-11T16:39:15.234Z,26.80
2023-02-11T16:41:41.989Z,30.05
2023-02-11T16:44:09.250Z,33.80
2023-02-11T16:46:37.812Z,32.70
2023-02-11T16:49:26.474Z,30.23
2023-02-11T16:51:57.370Z,29.08
2023-02-11T16:54:24.422Z,32.45
2023-02-11T16:56:51.258Z,32.67
2023-02-11T16:59:18.106Z,33.47
2023-02-11T17:01:51.439Z,31.33
2023-02-11T17:04:28.588Z,25.98
2023-02-11T17:06:58.261Z,29.50
2023-02-11T17:09:30.628Z,31.45
2023-02-11T17:11:57.960Z,23.45
2023-02-11T17:14:25.855Z,30.02
2023-02-11T17:16:52.692Z,26.67
2023-02-11T17:23:06.066Z,27.25
2023-02-11T17:25:32.900Z,31.75
2023-02-11T17:28:00.167Z,26.85
2023-02-11T17:30:27.008Z,27.27
2023-02-11T17:32:53.802Z,27.98
2023-02-11T17:35:20.632Z,28.25
2023-02-11T17:37:47.422Z,27.00
2023-02-11T17:40:14.856Z,26.30
2023-02-11T17:42:41.993Z,24.75
2023-02-11T17:45:10.175Z,26.20
2023-02-11T17:47:37.729Z,31.02
2023-02-11T17:50:04.743Z,30.05
2023-02-11T17:52:31.978Z,23.77
2023-02-11T17:54:58.735Z,23.77
2023-02-11T17:57:27.051Z,25.38
2023-02-11T17:59:53.840Z,25.52
2023-02-11T18:02:21.038Z,30.65
2023-02-11T18:04:47.856Z,31.10
2023-02-11T18:07:15.038Z,24.90
2023-02-11T18:09:42.328Z,29.90
2023-02-11T18:12:09.437Z,32.70
2023-02-11T18:14:39.071Z,31.63
2023-02-11T18:17:06.417Z,28.38
2023-02-11T18:19:35.220Z,30.83
2023-02-11T18:22:04.303Z,34.38
2023-02-11T18:24:31.664Z,29.00
2023-02-11T18:26:58.461Z,26.42
2023-02-11T18:29:25.537Z,25.92
2023-02-11T18:31:57.144Z,26.42
2023-02-11T18:34:24.963Z,22.50
2023-02-11T18:36:51.900Z,24.63
2023-02-11T18:39:20.867Z,26.40
2023-02-11T18:41:57.363Z,29.20
2023-02-11T18:44:24.785Z,25.58
2023-02-11T18:46:55.176Z,25.67
2023-02-11T18:49:22.276Z,29.48
2023-02-11T18:51:49.000Z,28.50
2023-02-11T18:54:15.765Z,29.98
2023-02-11T18:56:42.558Z,28.42
2023-02-11T18:59:10.649Z,32.60
2023-02-11T19:01:40.038Z,31.38
2023-02-11T19:04:08.079Z,35.50
2023-02-11T19:06:37.341Z,29.08
2023-02-11T19:09:10.737Z,27.10
2023-02-11T19:11:52.319Z,33.38
2023-02-11T19:14:21.553Z,33.85
2023-02-11T19:16:50.702Z,29.90
2023-02-11T19:19:19.276Z,30.98
2023-02-11T19:21:47.570Z,30.15
2023-02-11T19:24:16.752Z,29.63
2023-02-11T19:26:43.604Z,35.45
2023-02-11T19:29:10.734Z,37.63
2023-02-11T19:31:38.654Z,38.47
2023-02-11T19:34:07.432Z,28.58
2023-02-11T19:36:35.331Z,33.20
2023-02-11T19:39:03.585Z,31.42
2023-02-11T19:41:31.628Z,33.55
2023-02-11T19:43:58.409Z,38.38
2023-02-11T19:46:27.206Z,35.38
2023-02-11T19:48:55.039Z,39.22
2023-02-11T19:51:22.184Z,41.42
2023-02-11T19:53:51.224Z,35.63
2023-02-11T19:56:20.749Z,38.10
2023-02-11T19:58:49.543Z,30.67
2023-02-11T20:01:19.511Z,39.63
2023-02-11T20:03:50.155Z,36.38
2023-02-11T20:06:19.307Z,28.80
2023-02-11T20:08:46.112Z,34.65
2023-02-11T20:11:17.526Z,30.92
2023-02-11T20:13:44.516Z,32.28
2023-02-11T20:16:14.585Z,31.70
2023-02-11T20:18:41.689Z,35.80
2023-02-11T20:21:09.767Z,29.38
2023-02-11T20:23:38.782Z,32.72
2023-02-11T20:26:12.959Z,29.10
2023-02-11T20:28:42.566Z,26.83
2023-02-11T20:31:13.653Z,27.98
2023-02-11T20:33:41.665Z,28.45
2023-02-11T20:36:12.559Z,27.20
2023-02-11T20:38:39.521Z,28.25
2023-02-11T20:41:14.371Z,33.30
2023-02-11T20:43:43.017Z,34.15
2023-02-11T20:46:09.899Z,31.23
2023-02-11T20:48:36.853Z,38.38
2023-02-11T20:51:06.260Z,33.08
2023-02-11T20:53:35.751Z,32.08
2023-02-11T20:56:07.642Z,30.10
2023-02-11T20:58:35.343Z,40.00
2023-02-11T21:01:33.276Z,36.90
2023-02-11T21:04:06.379Z,42.45
2023-02-11T21:06:36.318Z,34.40
2023-02-11T21:09:05.025Z,33.28
2023-02-11T21:11:32.312Z,30.23
2023-02-11T21:13:59.611Z,32.53
2023-02-11T21:16:26.946Z,38.60
2023-02-11T21:18:55.426Z,34.33
2023-02-11T21:21:22.784Z,35.65
2023-02-11T21:23:49.996Z,33.78
2023-02-11T21:26:19.843Z,40.95
2023-02-11T21:28:46.682Z,36.30
2023-02-11T21:31:26.561Z,35.22
2023-02-11T21:33:56.710Z,35.55
2023-02-11T21:36:24.151Z,43.33
2023-02-11T21:38:51.167Z,35.47
2023-02-11T21:41:24.971Z,39.08
2023-02-11T21:43:53.109Z,37.72
2023-02-11T21:46:20.557Z,38.88
2023-02-11T21:48:47.756Z,36.25
2023-02-11T21:51:22.444Z,31.77
2023-02-11T21:53:57.507Z,37.22
2023-02-11T21:56:28.192Z,32.28
2023-02-11T21:58:57.864Z,43.10
2023-02-11T22:01:28.241Z,31.88
2023-02-11T22:03:55.030Z,32.83
2023-02-11T22:06:26.254Z,33.08
2023-02-11T22:08:55.770Z,38.50
2023-02-11T22:11:24.757Z,35.40
2023-02-11T22:13:56.306Z,32.42
2023-02-11T22:16:23.786Z,38.03
2023-02-11T22:18:51.573Z,35.63
2023-02-11T22:21:21.869Z,34.58
2023-02-11T22:23:49.680Z,31.15
2023-02-11T22:26:19.596Z,37.13
2023-02-11T22:28:46.738Z,35.50
2023-02-11T22:31:31.884Z,32.13
2023-02-11T22:33:59.985Z,32.45
2023-02-11T22:36:30.334Z,39.15
2023-02-11T22:39:00.889Z,31.17
2023-02-11T22:41:27.838Z,42.90
2023-02-11T22:43:55.014Z,41.13
2023-02-11T22:46:22.372Z,39.03
2023-02-11T22:48:49.956Z,39.85
2023-02-11T22:51:23.193Z,41.35
2023-02-11T22:54:11.999Z,34.35
2023-02-11T22:56:39.636Z,34.95
2023-02-11T22:59:12.256Z,43.10
2023-02-11T23:01:40.049Z,36.80
2023-02-11T23:04:09.067Z,34.85
2023-02-11T23:06:36.108Z,35.80
2023-02-11T23:09:08.957Z,39.00
2023-02-11T23:11:36.045Z,35.13
2023-02-11T23:14:03.782Z,31.67
2023-02-11T23:16:33.344Z,41.38
2023-02-11T23:19:02.703Z,36.22
2023-02-11T23:21:32.570Z,35.65
2023-02-11T23:24:08.927Z,31.63
2023-02-11T23:26:41.696Z,34.47
2023-02-11T23:29:09.727Z,36.25
2023-02-11T23:31:40.314Z,35.15
2023-02-11T23:34:08.462Z,36.92
2023-02-11T23:36:35.672Z,34.15
2023-02-11T23:39:02.699Z,32.47
2023-02-11T23:41:29.746Z,36.40
2023-02-11T23:43:57.951Z,38.05
2023-02-11T23:46:26.752Z,29.52
2023-02-11T23:48:53.882Z,34.33
2023-02-11T23:51:21.525Z,32.42
2023-02-11T23:53:50.120Z,34.90
2023-02-11T23:56:19.471Z,29.63
2023-02-11T23:58:49.380Z,34.88
